NCAR-RAP Real-Time Weather Data

Output produced by METARs form (14 October 2019  22:52 UTC)
found at http://weather.rap.ucar.edu/surface/
 
KORH 142154Z 23007KT 10SM CLR 16/08 A2991 RMK AO2 SLP131 T01560083
KORH 142054Z 22008KT 10SM CLR 18/09 A2989 RMK AO2 SLP124 T01780089 55009
KORH 141954Z 23008KT 10SM CLR 19/11 A2989 RMK AO2 SLP122 T01890106